createdAt,value
2022-10-02T00:00:54.111Z,0
2022-10-02T00:02:10.412Z,0
2022-10-02T00:03:26.716Z,0
2022-10-02T00:04:42.993Z,0
2022-10-02T00:05:59.304Z,0
2022-10-02T00:07:15.583Z,0
2022-10-02T00:08:31.887Z,0
2022-10-02T00:09:48.167Z,0
2022-10-02T00:11:04.467Z,0
2022-10-02T00:12:20.772Z,0
2022-10-02T00:13:37.060Z,0
2022-10-02T00:14:52.369Z,0
2022-10-02T00:16:08.655Z,0
2022-10-02T00:18:41.259Z,0
2022-10-02T00:19:57.557Z,0
2022-10-02T00:21:13.839Z,0
2022-10-02T00:22:30.144Z,0
2022-10-02T00:23:46.440Z,0
2022-10-02T00:26:19.023Z,0
2022-10-02T00:27:35.315Z,0
2022-10-02T00:28:51.610Z,0
2022-10-02T00:30:07.909Z,0
2022-10-02T00:31:23.220Z,0
2022-10-02T00:32:39.510Z,0
2022-10-02T00:33:55.801Z,0
2022-10-02T00:35:12.089Z,0
2022-10-02T00:36:28.382Z,0
2022-10-02T00:37:44.679Z,0
2022-10-02T00:39:00.986Z,0
2022-10-02T00:40:17.275Z,0
2022-10-02T00:41:33.567Z,0
2022-10-02T00:42:49.857Z,0
2022-10-02T00:44:06.151Z,0
2022-10-02T00:45:22.459Z,0
2022-10-02T00:46:38.749Z,0
2022-10-02T00:49:10.360Z,0
2022-10-02T00:50:26.643Z,0
2022-10-02T00:51:42.934Z,0
2022-10-02T00:52:59.237Z,0
2022-10-02T00:54:15.522Z,0
2022-10-02T00:55:31.822Z,0
2022-10-02T00:56:48.117Z,0
2022-10-02T00:58:04.419Z,0
2022-10-02T00:59:20.714Z,0
2022-10-02T01:00:37.006Z,0
2022-10-02T01:01:53.290Z,0
2022-10-02T01:03:09.582Z,0
2022-10-02T01:04:24.897Z,0
2022-10-02T01:05:41.193Z,0
2022-10-02T01:06:57.482Z,0
2022-10-02T01:08:13.791Z,0
2022-10-02T01:09:30.068Z,0
2022-10-02T01:10:46.360Z,0
2022-10-02T01:13:18.955Z,0
2022-10-02T01:14:35.244Z,0
2022-10-02T01:17:07.844Z,0
2022-10-02T01:18:24.131Z,0
2022-10-02T01:19:40.420Z,0
2022-10-02T01:20:55.735Z,0
2022-10-02T01:22:12.039Z,0
2022-10-02T01:23:28.326Z,0
2022-10-02T01:24:44.626Z,0
2022-10-02T01:26:00.908Z,0
2022-10-02T01:27:17.207Z,0
2022-10-02T01:28:33.497Z,0
2022-10-02T01:29:49.801Z,0
2022-10-02T01:31:06.090Z,0
2022-10-02T01:32:22.383Z,0
2022-10-02T01:33:38.677Z,0
2022-10-02T01:34:54.973Z,0
2022-10-02T01:37:27.570Z,0
2022-10-02T01:38:43.870Z,0
2022-10-02T01:39:59.182Z,0
2022-10-02T01:41:14.481Z,0
2022-10-02T01:42:30.783Z,0
2022-10-02T01:43:47.065Z,0
2022-10-02T01:45:03.360Z,0
2022-10-02T01:46:19.669Z,0
2022-10-02T01:47:35.966Z,0
2022-10-02T01:48:52.252Z,0
2022-10-02T01:50:08.538Z,0
2022-10-02T01:51:24.848Z,0
2022-10-02T01:52:41.140Z,0
2022-10-02T01:53:56.444Z,0
2022-10-02T01:55:11.756Z,0
2022-10-02T01:56:28.064Z,0
2022-10-02T01:57:44.341Z,0
2022-10-02T01:59:00.645Z,0
2022-10-02T02:00:16.931Z,0
2022-10-02T02:01:33.239Z,0
2022-10-02T02:02:49.525Z,0
2022-10-02T02:04:05.826Z,0
2022-10-02T02:05:22.120Z,0
2022-10-02T02:06:38.400Z,0
2022-10-02T02:07:54.708Z,0
2022-10-02T02:09:10.992Z,0
2022-10-02T02:10:27.292Z,0
2022-10-02T02:11:42.609Z,0
2022-10-02T02:12:58.890Z,0
2022-10-02T02:14:15.185Z,0
2022-10-02T02:15:31.483Z,0
2022-10-02T02:16:47.790Z,0
2022-10-02T02:18:04.077Z,0
2022-10-02T02:19:19.385Z,0
2022-10-02T02:20:35.681Z,0
2022-10-02T02:21:51.983Z,0
2022-10-02T02:23:08.272Z,0
2022-10-02T02:24:24.578Z,0
2022-10-02T02:25:40.867Z,0
2022-10-02T02:26:57.159Z,0
2022-10-02T02:28:13.445Z,0
2022-10-02T02:29:29.734Z,0
2022-10-02T02:30:46.034Z,0
2022-10-02T02:32:02.331Z,0
2022-10-02T02:33:18.620Z,0
2022-10-02T02:34:34.929Z,0
2022-10-02T02:35:50.235Z,0
2022-10-02T02:37:06.519Z,0
2022-10-02T02:38:22.831Z,0
2022-10-02T02:39:39.125Z,0
2022-10-02T02:40:55.406Z,0
2022-10-02T02:42:11.700Z,0
2022-10-02T02:43:27.998Z,0
2022-10-02T02:44:44.287Z,0
2022-10-02T02:46:00.588Z,0
2022-10-02T02:47:16.891Z,0
2022-10-02T02:48:33.172Z,0
2022-10-02T02:49:49.476Z,0
2022-10-02T02:51:05.759Z,0
2022-10-02T02:52:22.056Z,0
2022-10-02T02:53:37.369Z,0
2022-10-02T02:54:53.666Z,0
2022-10-02T02:56:09.962Z,0
2022-10-02T02:57:26.260Z,0
2022-10-02T02:58:42.547Z,0
2022-10-02T02:59:58.836Z,0
2022-10-02T03:01:15.140Z,0
2022-10-02T03:02:31.418Z,0
2022-10-02T03:03:47.718Z,0
2022-10-02T03:05:04.016Z,0
2022-10-02T03:06:20.307Z,0
2022-10-02T03:07:36.609Z,0
2022-10-02T03:08:52.908Z,0
2022-10-02T03:10:08.216Z,0
2022-10-02T03:11:24.496Z,0
2022-10-02T03:12:40.809Z,0
2022-10-02T03:13:57.086Z,0
2022-10-02T03:15:13.387Z,0
2022-10-02T03:16:29.672Z,0
2022-10-02T03:19:02.278Z,0
2022-10-02T03:21:34.860Z,0
2022-10-02T03:22:51.160Z,0
2022-10-02T03:24:07.455Z,0
2022-10-02T03:25:23.737Z,0
2022-10-02T03:26:39.040Z,0
2022-10-02T03:27:55.347Z,0
2022-10-02T03:29:11.631Z,0
2022-10-02T03:30:27.930Z,0
2022-10-02T03:31:44.224Z,0
2022-10-02T03:33:00.518Z,0
2022-10-02T03:34:16.813Z,0
2022-10-02T03:35:33.109Z,0
2022-10-02T03:36:49.398Z,0
2022-10-02T03:38:05.700Z,0
2022-10-02T03:39:21.991Z,0
2022-10-02T03:40:38.281Z,0
2022-10-02T03:41:54.586Z,0
2022-10-02T03:43:09.888Z,0
2022-10-02T03:44:26.189Z,0
2022-10-02T03:45:42.471Z,0
2022-10-02T03:46:58.779Z,0
2022-10-02T03:48:15.075Z,0
2022-10-02T03:49:31.360Z,0
2022-10-02T03:50:47.661Z,0
2022-10-02T03:53:20.241Z,0
2022-10-02T03:54:36.546Z,0
2022-10-02T03:55:52.834Z,0
2022-10-02T03:57:09.123Z,0
2022-10-02T03:58:25.417Z,0
2022-10-02T03:59:40.729Z,0
2022-10-02T04:00:57.032Z,0
2022-10-02T04:02:13.311Z,0
2022-10-02T04:03:29.611Z,0
2022-10-02T04:04:45.911Z,0
2022-10-02T04:06:02.211Z,0
2022-10-02T04:07:18.500Z,0
2022-10-02T04:08:34.784Z,0
2022-10-02T04:09:51.080Z,0
2022-10-02T04:11:07.371Z,0
2022-10-02T04:12:23.681Z,0
2022-10-02T04:14:56.269Z,0
2022-10-02T04:16:11.575Z,0
2022-10-02T04:17:27.873Z,0
2022-10-02T04:18:44.169Z,0
2022-10-02T04:20:00.451Z,0
2022-10-02T04:21:16.746Z,0
2022-10-02T04:22:33.045Z,0
2022-10-02T04:23:49.333Z,0
2022-10-02T04:25:05.644Z,0
2022-10-02T04:26:21.924Z,0
2022-10-02T04:27:38.222Z,0
2022-10-02T04:28:54.513Z,0
2022-10-02T04:30:10.810Z,0
2022-10-02T04:31:27.096Z,0
2022-10-02T04:32:42.407Z,0
2022-10-02T04:33:58.706Z,0
2022-10-02T04:35:15.011Z,0
2022-10-02T04:36:31.306Z,0
2022-10-02T04:37:47.540Z,1
2022-10-02T04:39:03.842Z,0
2022-10-02T04:40:20.080Z,1
2022-10-02T04:41:36.374Z,0
2022-10-02T04:42:52.638Z,2
2022-10-02T04:44:08.876Z,1
2022-10-02T04:45:25.098Z,1
2022-10-02T04:46:41.339Z,1
2022-10-02T04:47:57.598Z,3
2022-10-02T04:49:13.824Z,4
2022-10-02T04:50:29.095Z,2
2022-10-02T04:51:45.337Z,2
2022-10-02T04:53:01.576Z,10
2022-10-02T04:54:17.796Z,7
2022-10-02T04:55:34.047Z,9
2022-10-02T04:56:50.296Z,11
2022-10-02T04:58:06.521Z,16
2022-10-02T04:59:22.766Z,19
2022-10-02T05:00:39.016Z,21
2022-10-02T05:01:55.247Z,26
2022-10-02T05:03:11.488Z,34
2022-10-02T05:04:27.727Z,40
2022-10-02T05:05:43.970Z,49
2022-10-02T05:06:59.234Z,63
2022-10-02T05:08:15.468Z,79
2022-10-02T05:09:31.713Z,94
2022-10-02T05:10:47.946Z,119
2022-10-02T05:12:04.195Z,138
2022-10-02T05:13:20.434Z,157
2022-10-02T05:15:52.899Z,202
2022-10-02T05:17:09.142Z,232
2022-10-02T05:18:25.388Z,249
2022-10-02T05:19:41.632Z,252
2022-10-02T05:20:57.862Z,255
2022-10-02T05:22:14.114Z,293
2022-10-02T05:23:29.367Z,317
2022-10-02T05:24:45.606Z,345
2022-10-02T05:26:01.850Z,367
2022-10-02T05:27:18.092Z,382
2022-10-02T05:28:34.318Z,419
2022-10-02T05:29:50.566Z,451
2022-10-02T05:31:06.799Z,462
2022-10-02T05:32:23.057Z,460
2022-10-02T05:33:39.297Z,509
2022-10-02T05:34:55.536Z,586
2022-10-02T05:36:11.770Z,612
2022-10-02T05:37:28.000Z,621
2022-10-02T05:38:44.258Z,652
2022-10-02T05:40:00.481Z,721
2022-10-02T05:41:15.736Z,793
2022-10-02T05:42:31.978Z,883
2022-10-02T05:43:48.237Z,901
2022-10-02T05:46:20.704Z,838
2022-10-02T05:47:36.945Z,835
2022-10-02T05:48:53.188Z,854
2022-10-02T05:50:09.432Z,896
2022-10-02T05:51:25.676Z,912
2022-10-02T05:52:41.903Z,922
2022-10-02T05:53:58.144Z,954
2022-10-02T05:55:14.383Z,990
2022-10-02T05:56:30.633Z,1027
2022-10-02T05:57:45.882Z,1066
2022-10-02T05:59:02.125Z,1127
2022-10-02T06:00:18.374Z,1189
2022-10-02T06:01:34.606Z,1217
2022-10-02T06:02:50.840Z,1258
2022-10-02T06:05:23.319Z,1366
2022-10-02T06:06:39.572Z,1394
2022-10-02T06:07:55.809Z,1417
2022-10-02T06:09:12.058Z,1440
2022-10-02T06:10:28.286Z,1464
2022-10-02T06:11:44.527Z,1488
2022-10-02T06:13:00.767Z,1512
2022-10-02T06:14:16.028Z,1535
2022-10-02T06:15:32.267Z,1554
2022-10-02T06:16:48.509Z,1574
2022-10-02T06:18:04.756Z,1594
2022-10-02T06:19:20.994Z,1609
2022-10-02T06:20:37.232Z,1624
2022-10-02T06:21:53.470Z,1640
2022-10-02T06:23:09.718Z,1656
2022-10-02T06:24:25.946Z,1670
2022-10-02T06:25:42.196Z,1683
2022-10-02T06:26:58.433Z,1697
2022-10-02T06:28:14.674Z,1711
2022-10-02T06:29:30.914Z,1728
2022-10-02T06:30:47.142Z,1745
2022-10-02T06:32:02.401Z,1761
2022-10-02T06:33:18.638Z,1778
2022-10-02T06:34:33.911Z,1787
2022-10-02T06:35:50.153Z,1797
2022-10-02T06:37:06.387Z,1809
2022-10-02T06:38:22.621Z,1827
2022-10-02T06:39:38.860Z,1843
2022-10-02T06:40:55.099Z,1863
2022-10-02T06:42:11.338Z,1884
2022-10-02T06:43:27.582Z,1914
2022-10-02T06:44:43.820Z,1945
2022-10-02T06:46:00.059Z,1958
2022-10-02T06:47:16.317Z,1956
2022-10-02T06:48:32.541Z,1959
2022-10-02T06:51:05.021Z,1970
2022-10-02T06:52:20.294Z,1982
2022-10-02T06:53:36.518Z,1989
2022-10-02T06:54:52.757Z,1944
2022-10-02T06:57:25.242Z,1920
2022-10-02T06:58:41.478Z,2021
2022-10-02T06:59:57.737Z,2093
2022-10-02T07:01:13.977Z,2138
2022-10-02T07:02:30.198Z,2200
2022-10-02T07:03:46.456Z,2266
2022-10-02T07:05:02.678Z,2386
2022-10-02T07:06:18.930Z,2495
2022-10-02T07:07:35.174Z,2542
2022-10-02T07:08:50.428Z,3164
2022-10-02T07:10:06.671Z,3779
2022-10-02T07:11:22.898Z,3432
2022-10-02T07:12:39.152Z,3044
2022-10-02T07:13:55.386Z,2869
2022-10-02T07:15:11.617Z,2734
2022-10-02T07:16:27.875Z,2839
2022-10-02T07:17:44.115Z,2722
2022-10-02T07:19:00.353Z,2834
2022-10-02T07:20:16.588Z,3711
2022-10-02T07:21:32.828Z,4443
2022-10-02T07:22:49.057Z,4590
2022-10-02T07:24:05.304Z,4478
2022-10-02T07:25:20.571Z,4712
2022-10-02T07:26:36.799Z,4658
2022-10-02T07:27:53.053Z,4593
2022-10-02T07:29:09.294Z,3695
2022-10-02T07:30:25.529Z,3207
2022-10-02T07:31:41.765Z,3371
2022-10-02T07:32:57.996Z,3665
2022-10-02T07:34:14.251Z,3161
2022-10-02T07:35:30.479Z,2812
2022-10-02T07:36:46.732Z,2802
2022-10-02T07:38:02.963Z,2811
2022-10-02T07:40:35.457Z,3025
2022-10-02T07:43:07.920Z,2930
2022-10-02T07:44:23.186Z,2999
2022-10-02T07:45:39.414Z,3057
2022-10-02T07:46:55.673Z,3066
2022-10-02T07:48:11.912Z,3312
2022-10-02T07:49:28.143Z,3979
2022-10-02T07:50:44.391Z,4202
2022-10-02T07:52:00.614Z,3995
2022-10-02T07:53:16.860Z,4179
2022-10-02T07:54:33.093Z,5476
2022-10-02T07:55:49.346Z,5858
2022-10-02T07:57:05.582Z,5083
2022-10-02T07:58:21.822Z,4419
2022-10-02T07:59:38.063Z,5215
2022-10-02T08:00:53.323Z,4593
2022-10-02T08:02:09.561Z,4354
2022-10-02T08:03:25.797Z,4734
2022-10-02T08:04:42.051Z,4797
2022-10-02T08:05:58.275Z,4479
2022-10-02T08:07:14.528Z,4354
2022-10-02T08:08:30.771Z,4075
2022-10-02T08:11:03.240Z,4744
2022-10-02T08:12:19.476Z,4766
2022-10-02T08:13:35.732Z,4730
2022-10-02T08:14:51.970Z,5336
2022-10-02T08:16:08.201Z,4954
2022-10-02T08:17:23.452Z,4146
2022-10-02T08:18:39.701Z,3819
2022-10-02T08:19:55.933Z,3693
2022-10-02T08:21:12.185Z,3570
2022-10-02T08:22:28.412Z,3950
2022-10-02T08:23:44.664Z,4485
2022-10-02T08:25:00.907Z,5376
2022-10-02T08:26:17.134Z,6247
2022-10-02T08:27:33.379Z,5925
2022-10-02T08:28:49.613Z,5627
2022-10-02T08:30:05.848Z,5662
2022-10-02T08:31:22.110Z,5902
2022-10-02T08:32:38.329Z,6140
2022-10-02T08:33:53.598Z,6444
2022-10-02T08:35:09.833Z,6981
2022-10-02T08:36:26.080Z,5914
2022-10-02T08:37:42.316Z,4601
2022-10-02T08:38:58.551Z,3561
2022-10-02T08:40:14.790Z,3210
2022-10-02T08:41:31.031Z,2850
2022-10-02T08:42:47.271Z,3339
2022-10-02T08:44:03.506Z,4245
2022-10-02T08:45:19.762Z,4576
2022-10-02T08:47:52.240Z,4922
2022-10-02T08:49:08.477Z,5103
2022-10-02T08:50:23.731Z,5501
2022-10-02T08:51:39.976Z,5661
2022-10-02T08:52:56.218Z,5522
2022-10-02T08:54:12.462Z,5532
2022-10-02T08:55:28.681Z,5741
2022-10-02T08:56:44.923Z,6071
2022-10-02T08:58:01.167Z,6105
2022-10-02T08:59:17.405Z,5604
2022-10-02T09:00:33.654Z,4787
2022-10-02T09:01:49.893Z,3912
2022-10-02T09:03:06.131Z,3667
2022-10-02T09:04:22.377Z,4867
2022-10-02T09:05:38.604Z,5984
2022-10-02T09:06:53.869Z,5876
2022-10-02T09:08:10.108Z,5638
2022-10-02T09:09:26.340Z,4962
2022-10-02T09:10:42.587Z,4658
2022-10-02T09:11:58.833Z,5634
2022-10-02T09:13:15.065Z,6110
2022-10-02T09:14:31.307Z,5711
2022-10-02T09:15:47.546Z,5525
2022-10-02T09:17:03.780Z,5692
2022-10-02T09:19:36.272Z,5106
2022-10-02T09:20:52.491Z,5590
2022-10-02T09:22:08.742Z,6358
2022-10-02T09:23:23.995Z,5915
2022-10-02T09:24:40.231Z,5978
2022-10-02T09:25:56.482Z,5819
2022-10-02T09:27:12.709Z,6099
2022-10-02T09:28:28.952Z,6384
2022-10-02T09:29:45.194Z,6543
2022-10-02T09:31:01.435Z,6166
2022-10-02T09:32:17.681Z,6547
2022-10-02T09:34:50.147Z,6284
2022-10-02T09:36:06.393Z,6500
2022-10-02T09:37:22.633Z,6307
2022-10-02T09:38:38.874Z,6109
2022-10-02T09:39:54.123Z,6210
2022-10-02T09:41:10.377Z,6492
2022-10-02T09:42:26.614Z,6856
2022-10-02T09:43:42.846Z,6851
2022-10-02T09:44:59.084Z,6233
2022-10-02T09:46:15.330Z,6361
2022-10-02T09:47:31.566Z,6444
2022-10-02T09:48:47.801Z,6536
2022-10-02T09:50:04.045Z,6562
2022-10-02T09:51:20.276Z,6498
2022-10-02T09:52:36.522Z,5552
2022-10-02T09:53:52.766Z,4692
2022-10-02T09:55:08.996Z,4211
2022-10-02T09:56:24.265Z,4284
2022-10-02T09:57:40.498Z,4061
2022-10-02T09:58:56.731Z,3923
2022-10-02T10:00:12.978Z,3835
2022-10-02T10:01:29.208Z,4110
2022-10-02T10:02:45.456Z,4703
2022-10-02T10:04:01.702Z,5389
2022-10-02T10:05:17.944Z,5762
2022-10-02T10:06:34.175Z,6535
2022-10-02T10:07:50.404Z,7148
2022-10-02T10:09:06.654Z,6669
2022-10-02T10:10:22.891Z,5773
2022-10-02T10:11:39.123Z,4621
2022-10-02T10:12:54.397Z,4163
2022-10-02T10:14:10.627Z,4264
2022-10-02T10:15:26.874Z,4492
2022-10-02T10:17:59.343Z,4310
2022-10-02T10:19:15.577Z,4148
2022-10-02T10:20:31.831Z,4023
2022-10-02T10:21:48.076Z,3640
2022-10-02T10:23:04.303Z,3309
2022-10-02T10:24:20.547Z,3214
2022-10-02T10:25:36.776Z,3227
2022-10-02T10:26:53.020Z,3212
2022-10-02T10:28:09.272Z,3060
2022-10-02T10:29:25.504Z,2959
2022-10-02T10:30:40.760Z,2975
2022-10-02T10:31:56.990Z,2933
2022-10-02T10:33:13.239Z,3042
2022-10-02T10:34:29.474Z,3172
2022-10-02T10:35:45.729Z,3306
2022-10-02T10:37:01.965Z,3668
2022-10-02T10:38:18.199Z,3800
2022-10-02T10:39:34.446Z,3677
2022-10-02T10:40:50.675Z,3584
2022-10-02T10:42:06.909Z,3539
2022-10-02T10:43:23.162Z,3508
2022-10-02T10:44:39.391Z,3453
2022-10-02T10:45:55.630Z,3390
2022-10-02T10:47:10.882Z,3221
2022-10-02T10:48:27.127Z,3095
2022-10-02T10:50:58.632Z,3247
2022-10-02T10:52:13.897Z,3354
2022-10-02T10:53:30.134Z,3307
2022-10-02T10:54:46.381Z,2854
2022-10-02T10:56:02.611Z,3840
2022-10-02T10:57:18.846Z,4775
2022-10-02T10:58:35.081Z,3994
2022-10-02T10:59:51.331Z,4523
2022-10-02T11:01:07.563Z,4135
2022-10-02T11:02:23.808Z,5217
2022-10-02T11:03:40.040Z,4306
2022-10-02T11:04:56.288Z,4730
2022-10-02T11:06:12.527Z,5233
2022-10-02T11:07:28.760Z,4664
2022-10-02T11:08:44.014Z,4127
2022-10-02T11:10:00.264Z,5589
2022-10-02T11:11:16.496Z,5071
2022-10-02T11:13:48.980Z,4426
2022-10-02T11:15:05.223Z,4430
2022-10-02T11:16:21.457Z,4163
2022-10-02T11:17:37.706Z,4195
2022-10-02T11:18:53.942Z,5581
2022-10-02T11:20:10.187Z,7180
2022-10-02T11:21:26.413Z,7089
2022-10-02T11:22:42.652Z,7061
2022-10-02T11:23:58.906Z,6858
2022-10-02T11:25:14.155Z,6218
2022-10-02T11:26:30.386Z,5670
2022-10-02T11:27:46.625Z,5133
2022-10-02T11:29:02.866Z,5180
2022-10-02T11:30:19.120Z,4802
2022-10-02T11:31:35.345Z,4449
2022-10-02T11:32:51.601Z,3873
2022-10-02T11:35:24.072Z,4415
2022-10-02T11:36:40.314Z,5346
2022-10-02T11:37:56.559Z,4480
2022-10-02T11:39:12.792Z,6343
2022-10-02T11:40:29.026Z,6735
2022-10-02T11:41:44.286Z,6649
2022-10-02T11:43:00.527Z,5703
2022-10-02T11:44:16.756Z,4979
2022-10-02T11:45:33.003Z,4665
2022-10-02T11:46:49.239Z,4827
2022-10-02T11:48:05.481Z,4474
2022-10-02T11:49:21.723Z,3995
2022-10-02T11:50:37.966Z,5991
2022-10-02T11:51:54.191Z,5487
2022-10-02T11:53:10.447Z,5011
2022-10-02T11:54:26.679Z,4530
2022-10-02T11:55:42.916Z,5037
2022-10-02T11:56:59.162Z,4762
2022-10-02T11:58:14.413Z,5024
2022-10-02T11:59:30.649Z,4674
2022-10-02T12:00:46.903Z,4559
2022-10-02T12:02:03.142Z,4894
2022-10-02T12:03:19.362Z,5135
2022-10-02T12:04:35.613Z,6294
2022-10-02T12:05:51.847Z,5678
2022-10-02T12:07:08.099Z,4756
2022-10-02T12:08:24.331Z,4107
2022-10-02T12:09:40.567Z,4302
2022-10-02T12:10:56.815Z,4441
2022-10-02T12:12:13.051Z,3595
2022-10-02T12:13:29.291Z,4775
2022-10-02T12:14:45.530Z,4206
2022-10-02T12:16:00.777Z,3958
2022-10-02T12:17:17.022Z,4056
2022-10-02T12:18:33.272Z,4164
2022-10-02T12:19:49.513Z,4060
2022-10-02T12:21:05.735Z,3646
2022-10-02T12:22:21.987Z,5469
2022-10-02T12:23:38.215Z,4944
2022-10-02T12:24:54.452Z,3892
2022-10-02T12:26:10.700Z,4753
2022-10-02T12:27:26.941Z,4749
2022-10-02T12:29:59.414Z,5012
2022-10-02T12:31:15.662Z,3597
2022-10-02T12:32:30.922Z,5325
2022-10-02T12:33:47.164Z,5385
2022-10-02T12:35:03.401Z,5234
2022-10-02T12:36:19.637Z,6476
2022-10-02T12:37:35.870Z,5069
2022-10-02T12:38:52.115Z,4577
2022-10-02T12:40:08.356Z,4003
2022-10-02T12:41:24.587Z,3739
2022-10-02T12:42:40.822Z,4607
2022-10-02T12:45:13.302Z,5076
2022-10-02T12:46:29.541Z,7476
2022-10-02T12:47:45.785Z,7394
2022-10-02T12:49:01.053Z,5725
2022-10-02T12:50:17.295Z,5238
2022-10-02T12:52:49.771Z,4643
2022-10-02T12:54:05.019Z,3871
2022-10-02T12:55:20.289Z,3789
2022-10-02T12:56:36.529Z,5687
2022-10-02T12:57:52.766Z,4263
2022-10-02T12:59:09.010Z,3846
2022-10-02T13:00:25.232Z,3367
2022-10-02T13:01:41.479Z,3141
2022-10-02T13:02:57.726Z,4878
2022-10-02T13:04:13.955Z,4977
2022-10-02T13:05:30.191Z,4984
2022-10-02T13:06:46.433Z,4916
2022-10-02T13:08:01.706Z,4810
2022-10-02T13:09:16.964Z,3509
2022-10-02T13:10:33.199Z,3749
2022-10-02T13:11:49.444Z,4363
2022-10-02T13:13:05.681Z,4279
2022-10-02T13:14:21.914Z,3910
2022-10-02T13:16:54.385Z,6487
2022-10-02T13:18:10.628Z,5586
2022-10-02T13:19:26.881Z,5638
2022-10-02T13:20:43.115Z,5766
2022-10-02T13:21:59.357Z,4361
2022-10-02T13:23:15.583Z,4712
2022-10-02T13:24:31.832Z,5308
2022-10-02T13:25:47.082Z,4612
2022-10-02T13:27:03.328Z,4282
2022-10-02T13:28:19.558Z,3446
2022-10-02T13:30:52.051Z,5308
2022-10-02T13:33:23.537Z,5223
2022-10-02T13:34:38.805Z,4822
2022-10-02T13:35:55.039Z,3548
2022-10-02T13:37:10.305Z,2873
2022-10-02T13:38:26.536Z,2537
2022-10-02T13:39:42.785Z,2265
2022-10-02T13:40:59.028Z,2157
2022-10-02T13:42:15.269Z,2209
2022-10-02T13:43:31.492Z,2336
2022-10-02T13:44:47.740Z,2285
2022-10-02T13:46:03.970Z,2207
2022-10-02T13:47:20.231Z,2129
2022-10-02T13:48:35.488Z,2146
2022-10-02T13:49:50.739Z,2063
2022-10-02T13:51:06.983Z,2204
2022-10-02T13:52:23.213Z,2088
2022-10-02T13:53:39.454Z,1970
2022-10-02T13:54:55.700Z,2015
2022-10-02T13:56:11.940Z,2124
2022-10-02T13:57:28.171Z,2273
2022-10-02T13:58:44.419Z,2588
2022-10-02T14:01:16.897Z,2662
2022-10-02T14:02:33.125Z,2586
2022-10-02T14:03:49.382Z,2614
2022-10-02T14:05:05.611Z,2736
2022-10-02T14:06:21.859Z,2730
2022-10-02T14:07:37.116Z,2661
2022-10-02T14:08:53.350Z,2631
2022-10-02T14:10:09.588Z,2875
2022-10-02T14:11:25.828Z,2643
2022-10-02T14:12:42.056Z,2558
2022-10-02T14:13:58.303Z,2623
2022-10-02T14:16:30.775Z,2938
2022-10-02T14:17:47.013Z,3387
2022-10-02T14:19:03.264Z,2959
2022-10-02T14:20:19.498Z,2800
2022-10-02T14:21:35.745Z,2665
2022-10-02T14:22:51.977Z,2503
2022-10-02T14:24:07.228Z,2553
2022-10-02T14:25:23.475Z,2410
2022-10-02T14:26:39.724Z,2496
2022-10-02T14:27:55.966Z,2741
2022-10-02T14:29:12.198Z,2703
2022-10-02T14:30:28.433Z,2666
2022-10-02T14:31:44.671Z,2736
2022-10-02T14:33:00.917Z,2757
2022-10-02T14:34:17.158Z,2715
2022-10-02T14:35:33.396Z,2644
2022-10-02T14:36:49.632Z,2584
2022-10-02T14:39:22.118Z,2916
2022-10-02T14:40:37.000Z,2765
2022-10-02T14:41:53.597Z,2541
2022-10-02T14:43:09.000Z,2373
2022-10-02T14:44:26.080Z,2236
2022-10-02T14:46:58.575Z,2094
2022-10-02T14:49:31.038Z,2236
2022-10-02T14:50:46.317Z,2231
2022-10-02T14:52:01.571Z,2215
2022-10-02T14:54:34.042Z,2238
2022-10-02T14:55:50.291Z,2221
2022-10-02T14:57:06.521Z,2195
2022-10-02T14:58:22.769Z,2178
2022-10-02T14:59:39.000Z,2158
2022-10-02T15:00:55.236Z,2110
2022-10-02T15:02:11.485Z,2083
2022-10-02T15:03:27.717Z,2146
2022-10-02T15:04:43.957Z,2193
2022-10-02T15:06:00.201Z,2221
2022-10-02T15:07:15.453Z,2318
2022-10-02T15:09:47.947Z,2562
2022-10-02T15:11:03.192Z,2856
2022-10-02T15:12:18.463Z,2981
2022-10-02T15:13:34.696Z,2811
2022-10-02T15:14:50.924Z,2591
2022-10-02T15:17:23.418Z,2290
2022-10-02T15:18:39.651Z,2055
2022-10-02T15:19:55.895Z,1889
2022-10-02T15:21:12.129Z,1728
2022-10-02T15:22:28.380Z,1596
2022-10-02T15:23:44.618Z,1423
2022-10-02T15:25:00.858Z,1396
2022-10-02T15:26:17.099Z,1330
2022-10-02T15:27:33.330Z,1400
2022-10-02T15:28:48.585Z,1071
2022-10-02T15:30:04.823Z,895
2022-10-02T15:31:21.060Z,773
2022-10-02T15:32:37.303Z,625
2022-10-02T15:33:53.542Z,526
2022-10-02T15:35:09.775Z,456
2022-10-02T15:36:26.023Z,384
2022-10-02T15:37:42.262Z,381
2022-10-02T15:38:57.532Z,361
2022-10-02T15:40:13.771Z,301
2022-10-02T15:41:29.028Z,256
2022-10-02T15:42:45.262Z,244
2022-10-02T15:44:01.499Z,190
2022-10-02T15:45:17.738Z,255
2022-10-02T15:46:33.978Z,346
2022-10-02T15:47:50.214Z,286
2022-10-02T15:49:06.464Z,281
2022-10-02T15:50:22.694Z,378
2022-10-02T15:51:38.937Z,1369
2022-10-02T15:52:54.198Z,1433
2022-10-02T15:55:25.692Z,1255
2022-10-02T15:56:41.942Z,1212
2022-10-02T15:57:58.173Z,1118
2022-10-02T15:59:14.424Z,1040
2022-10-02T16:00:30.658Z,993
2022-10-02T16:03:03.136Z,1231
2022-10-02T16:04:19.382Z,1062
2022-10-02T16:05:35.616Z,872
2022-10-02T16:06:51.857Z,701
2022-10-02T16:08:08.103Z,650
2022-10-02T16:10:40.566Z,578
2022-10-02T16:11:55.838Z,608
2022-10-02T16:13:11.084Z,553
2022-10-02T16:14:27.320Z,460
2022-10-02T16:15:43.563Z,398
2022-10-02T16:18:16.055Z,369
2022-10-02T16:19:32.295Z,369
2022-10-02T16:20:48.537Z,347
2022-10-02T16:22:04.769Z,316
2022-10-02T16:23:21.018Z,285
2022-10-02T16:25:53.484Z,194
2022-10-02T16:27:09.723Z,157
2022-10-02T16:28:24.987Z,124
2022-10-02T16:29:40.243Z,108
2022-10-02T16:30:56.474Z,122
2022-10-02T16:32:12.714Z,137
2022-10-02T16:33:28.963Z,126
2022-10-02T16:34:45.208Z,129
2022-10-02T16:36:01.436Z,87
2022-10-02T16:37:17.691Z,108
2022-10-02T16:38:33.925Z,121
2022-10-02T16:39:50.162Z,110
2022-10-02T16:41:06.394Z,104
2022-10-02T16:42:21.663Z,101
2022-10-02T16:43:36.923Z,89
2022-10-02T16:44:53.148Z,73
2022-10-02T16:46:09.405Z,70
2022-10-02T16:48:41.878Z,60
2022-10-02T16:51:14.353Z,47
2022-10-02T16:52:30.590Z,47
2022-10-02T16:53:46.831Z,48
2022-10-02T16:56:19.322Z,47
2022-10-02T16:57:35.547Z,37
2022-10-02T16:58:51.798Z,31
2022-10-02T17:00:07.058Z,26
2022-10-02T17:01:23.293Z,22
2022-10-02T17:03:54.790Z,18
2022-10-02T17:05:11.026Z,13
2022-10-02T17:06:27.260Z,7
2022-10-02T17:07:43.513Z,3
2022-10-02T17:08:59.749Z,5
2022-10-02T17:11:32.227Z,8
2022-10-02T17:12:48.476Z,3
2022-10-02T17:14:04.701Z,2
2022-10-02T17:15:20.948Z,2
2022-10-02T17:16:37.181Z,1
2022-10-02T17:17:53.424Z,2
2022-10-02T17:19:08.681Z,2
2022-10-02T17:21:41.157Z,1
2022-10-02T17:22:57.403Z,1
2022-10-02T17:24:13.688Z,0
2022-10-02T17:26:46.283Z,0
2022-10-02T17:28:02.572Z,0
2022-10-02T17:29:18.879Z,0
2022-10-02T17:30:35.155Z,0
2022-10-02T17:31:51.458Z,0
2022-10-02T17:34:24.037Z,0
2022-10-02T17:35:39.352Z,0
2022-10-02T17:36:55.655Z,0
2022-10-02T17:39:28.245Z,0
2022-10-02T17:42:00.827Z,0
2022-10-02T17:43:17.129Z,0
2022-10-02T17:44:33.418Z,0
2022-10-02T17:45:49.710Z,0
2022-10-02T17:47:05.993Z,0
2022-10-02T17:48:22.287Z,0
2022-10-02T17:49:38.597Z,0
2022-10-02T17:50:54.889Z,0
2022-10-02T17:52:10.191Z,0
2022-10-02T17:53:26.485Z,0
2022-10-02T17:54:42.775Z,0
2022-10-02T17:55:59.074Z,0
2022-10-02T17:57:15.370Z,0
2022-10-02T17:58:31.660Z,0
2022-10-02T17:59:47.956Z,0
2022-10-02T18:01:04.249Z,0
2022-10-02T18:02:20.535Z,0
2022-10-02T18:03:36.831Z,0
2022-10-02T18:06:09.426Z,0
2022-10-02T18:07:25.713Z,0
2022-10-02T18:08:42.021Z,0
2022-10-02T18:09:58.295Z,0
2022-10-02T18:12:29.911Z,0
2022-10-02T18:13:45.233Z,0
2022-10-02T18:15:01.525Z,0
2022-10-02T18:16:17.820Z,0
2022-10-02T18:17:34.104Z,0
2022-10-02T18:18:50.409Z,0
2022-10-02T18:20:06.706Z,0
2022-10-02T18:21:22.987Z,0
2022-10-02T18:22:39.286Z,0
2022-10-02T18:23:55.575Z,0
2022-10-02T18:25:11.877Z,0
2022-10-02T18:26:28.167Z,0
2022-10-02T18:27:44.464Z,0
2022-10-02T18:29:00.756Z,0
2022-10-02T18:30:16.062Z,0
2022-10-02T18:31:32.356Z,0
2022-10-02T18:32:48.653Z,0
2022-10-02T18:34:04.937Z,0
2022-10-02T18:35:20.257Z,0
2022-10-02T18:36:35.565Z,0
2022-10-02T18:37:51.870Z,0
2022-10-02T18:39:08.152Z,0
2022-10-02T18:40:24.446Z,0
2022-10-02T18:41:40.752Z,0
2022-10-02T18:42:57.044Z,0
2022-10-02T18:44:13.331Z,0
2022-10-02T18:45:29.640Z,0
2022-10-02T18:46:45.927Z,0
2022-10-02T18:48:02.219Z,0